Time;durP1;ratioP1;P1;durP2;ratioP2;P2;SDS_P1;SDS_P2;PMS_P1;PMS_P2;Temp;Humidity;BMP_temperature;BMP_pressure;BME280_temperature;BME280_humidity;BME280_pressure;Samples;Min_cycle;Max_cycle;Signal;HPM_P1;HPM_P2
2023/07/16 00:02:26;;;;;;;6.22;5.13;;;;;;;22.05;81.95;97273.13;6181682;28;20319;-58
2023/07/16 00:05:28;;;;;;;9.43;5.40;;;;;;;21.99;82.11;97268.22;6158370;28;20236;-58
2023/07/16 00:08:30;;;;;;;5.78;5.22;;;;;;;21.92;82.26;97273.34;6202511;28;20236;-58
2023/07/16 00:11:33;;;;;;;6.00;5.50;;;;;;;21.87;82.86;97272.44;6197491;28;20237;-58
2023/07/16 00:14:35;;;;;;;5.97;4.80;;;;;;;21.80;83.25;97260.47;6196390;28;20227;-58
2023/07/16 00:17:37;;;;;;;6.37;4.80;;;;;;;21.75;83.00;97264.16;6191947;28;20228;-57
2023/07/16 00:20:39;;;;;;;6.30;5.50;;;;;;;21.70;83.02;97255.41;6190072;28;20232;-58
2023/07/16 00:23:42;;;;;;;6.67;5.30;;;;;;;21.62;83.66;97262.44;6195599;28;20325;-57
2023/07/16 00:26:44;;;;;;;8.00;5.50;;;;;;;21.54;84.01;97253.25;6193895;28;20237;-58
2023/07/16 00:29:46;;;;;;;6.90;4.83;;;;;;;21.49;84.54;97261.53;6192615;28;20797;-58
2023/07/16 00:32:48;;;;;;;7.63;4.77;;;;;;;21.45;84.78;97265.22;6193529;28;20231;-57
2023/07/16 00:35:50;;;;;;;5.17;4.67;;;;;;;21.46;85.01;97273.00;6193565;28;20245;-58
2023/07/16 00:38:53;;;;;;;6.63;4.90;;;;;;;21.50;84.93;97267.75;6195846;28;20299;-58
2023/07/16 00:41:56;;;;;;;5.33;4.80;;;;;;;21.53;84.81;97265.22;6182233;28;20224;-58
2023/07/16 00:44:58;;;;;;;7.57;5.87;;;;;;;21.53;84.32;97272.53;6192973;28;20364;-58
2023/07/16 00:48:00;;;;;;;8.33;5.50;;;;;;;21.50;83.77;97267.75;6194673;28;20268;-58
2023/07/16 00:51:04;;;;;;;6.83;5.23;;;;;;;21.47;83.30;97262.97;6190660;28;20240;-58
2023/07/16 00:54:07;;;;;;;9.43;5.87;;;;;;;21.41;83.18;97265.06;6194884;28;20209;-58
2023/07/16 00:57:09;;;;;;;7.23;5.20;;;;;;;21.31;83.56;97268.09;6198285;28;20763;-58
2023/07/16 01:00:12;;;;;;;6.97;5.43;;;;;;;21.25;84.03;97267.44;6193752;28;20212;-58
2023/07/16 01:03:15;;;;;;;6.20;5.07;;;;;;;21.15;83.64;97253.44;6193931;28;20220;-58
2023/07/16 01:06:32;;;;;;;6.00;5.50;;;;;;;21.13;83.95;97253.75;6177868;28;20733;-58
2023/07/16 01:09:41;;;;;;;6.67;4.70;;;;;;;21.05;84.12;97249.16;6171263;28;20225;-58
2023/07/16 01:12:43;;;;;;;8.27;4.83;;;;;;;20.98;84.69;97252.31;6194548;28;20259;-58
2023/07/16 01:15:45;;;;;;;5.10;4.57;;;;;;;20.91;84.98;97252.03;6176601;28;20725;-58
2023/07/16 01:18:48;;;;;;;8.53;5.27;;;;;;;20.75;86.43;97245.50;6197685;28;20232;-58
2023/07/16 01:22:15;;;;;;;7.13;4.93;;;;;;;20.67;87.01;97247.09;6191178;28;20252;-58
2023/07/16 01:25:42;;;;;;;8.93;5.80;;;;;;;20.51;87.48;97241.34;6171438;28;20229;-57
2023/07/16 01:29:28;;;;;;;6.77;5.50;;;;;;;20.44;88.04;97240.97;6195448;28;20225;-58
2023/07/16 01:32:34;;;;;;;6.47;5.10;;;;;;;20.19;88.72;97214.69;6181161;28;20710;-57
2023/07/16 01:35:39;;;;;;;8.03;5.70;;;;;;;20.29;88.73;97241.44;6192897;28;20252;-57
2023/07/16 01:38:42;;;;;;;6.77;4.67;;;;;;;20.22;89.22;97247.31;6190231;28;20601;-58
2023/07/16 01:41:44;;;;;;;6.17;5.37;;;;;;;20.16;89.60;97235.06;6189647;28;20592;-57
2023/07/16 01:44:47;;;;;;;6.50;5.73;;;;;;;20.08;90.26;97228.50;6178791;28;20236;-58
2023/07/16 01:48:23;;;;;;;7.37;6.10;;;;;;;20.06;90.30;97241.53;6175753;28;20771;-58
2023/07/16 01:51:27;;;;;;;6.50;5.20;;;;;;;19.95;90.08;97234.84;6190538;28;20233;-57
2023/07/16 01:54:29;;;;;;;7.03;5.80;;;;;;;19.89;91.27;97232.56;6192244;28;20638;-57
2023/07/16 01:57:32;;;;;;;9.37;6.00;;;;;;;19.82;91.28;97236.53;6194173;28;20220;-57
2023/07/16 02:00:36;;;;;;;8.80;5.53;;;;;;;19.76;91.59;97245.09;6196341;28;20260;-58
2023/07/16 02:03:38;;;;;;;6.43;5.03;;;;;;;19.73;91.83;97243.00;6192599;28;20645;-57
2023/07/16 02:06:40;;;;;;;8.43;5.70;;;;;;;19.63;92.42;97241.38;6173264;28;20236;-58
2023/07/16 02:09:43;;;;;;;7.00;6.07;;;;;;;19.57;93.00;97253.41;6191552;28;20243;-57
2023/07/16 02:12:45;;;;;;;7.80;5.87;;;;;;;19.45;93.88;97250.47;6189899;28;20228;-57
2023/07/16 02:15:47;;;;;;;7.37;6.30;;;;;;;19.41;94.15;97249.47;6192345;28;20235;-57
2023/07/16 02:18:50;;;;;;;7.07;6.37;;;;;;;19.39;94.15;97249.00;6189596;28;20601;-57
2023/07/16 02:21:54;;;;;;;6.43;5.83;;;;;;;19.38;94.12;97244.72;6190526;28;20235;-57
2023/07/16 02:24:56;;;;;;;11.87;6.63;;;;;;;19.33;94.39;97251.03;6193769;28;20228;-57
2023/07/16 02:27:58;;;;;;;7.33;6.07;;;;;;;19.32;94.24;97252.94;6191816;28;20286;-58
2023/07/16 02:31:03;;;;;;;5.57;5.07;;;;;;;19.11;94.15;97230.25;6193680;28;20232;-58
2023/07/16 02:34:05;;;;;;;6.97;6.27;;;;;;;19.24;94.52;97259.09;6192998;28;20306;-58
2023/07/16 02:37:07;;;;;;;7.70;6.90;;;;;;;19.22;94.93;97269.41;6187533;28;20240;-58
2023/07/16 02:40:09;;;;;;;9.23;6.63;;;;;;;19.17;94.81;97266.84;6187532;28;20370;-57
2023/07/16 02:43:12;;;;;;;7.10;6.40;;;;;;;19.11;95.24;97273.44;6172526;28;20235;-57
2023/07/16 02:46:14;;;;;;;13.00;6.73;;;;;;;19.07;95.86;97270.59;6190957;28;20263;-58
2023/07/16 02:49:17;;;;;;;7.33;5.93;;;;;;;19.06;95.63;97276.25;6189593;28;20241;-58
2023/07/16 02:52:19;;;;;;;6.10;5.50;;;;;;;19.01;95.94;97290.72;6188389;28;20243;-58
2023/07/16 02:55:21;;;;;;;8.43;6.50;;;;;;;18.97;97.01;97286.22;6177034;28;20800;-58
2023/07/16 02:58:23;;;;;;;7.80;6.40;;;;;;;18.93;96.77;97291.44;6196113;28;20637;-58
2023/07/16 03:01:26;;;;;;;7.73;5.87;;;;;;;18.93;97.19;97296.03;6194489;28;20624;-58
2023/07/16 03:04:28;;;;;;;7.50;6.30;;;;;;;18.89;97.51;97287.75;6182308;28;20237;-58
2023/07/16 03:07:30;;;;;;;7.30;6.60;;;;;;;18.84;97.38;97293.25;6181460;28;20267;-58
2023/07/16 03:10:32;;;;;;;9.30;6.93;;;;;;;18.63;98.17;97276.69;6197259;28;20646;-58
2023/07/16 03:13:34;;;;;;;10.10;7.03;;;;;;;18.76;98.22;97302.06;6197514;28;20734;-58
2023/07/16 03:16:36;;;;;;;13.20;6.83;;;;;;;18.71;98.66;97311.06;6198250;28;20237;-58
2023/07/16 03:19:38;;;;;;;7.17;6.47;;;;;;;18.69;99.03;97313.28;6182616;28;20726;-58
2023/07/16 03:22:41;;;;;;;7.83;7.03;;;;;;;18.68;98.88;97321.66;6178928;28;20241;-58
2023/07/16 03:25:44;;;;;;;10.67;7.00;;;;;;;18.62;99.65;97325.53;6193346;28;20232;-58
2023/07/16 03:28:47;;;;;;;10.70;6.47;;;;;;;18.60;99.63;97331.25;6174314;28;20236;-57
2023/07/16 03:31:49;;;;;;;10.47;6.43;;;;;;;18.56;99.80;97330.25;6181047;28;20596;-58
2023/07/16 03:34:54;;;;;;;8.03;6.70;;;;;;;18.55;100.00;97334.06;6198036;28;20375;-58
2023/07/16 03:37:56;;;;;;;10.03;6.33;;;;;;;18.53;99.75;97331.66;6192850;28;20232;-58
2023/07/16 03:41:00;;;;;;;7.30;6.50;;;;;;;18.53;99.71;97347.06;6178502;28;20602;-58
2023/07/16 03:44:04;;;;;;;8.43;5.80;;;;;;;18.50;100.00;97343.06;6185968;28;20655;-58
2023/07/16 03:47:09;;;;;;;8.53;6.47;;;;;;;18.50;100.00;97356.53;6175712;28;20225;-58
2023/07/16 03:50:11;;;;;;;8.03;6.10;;;;;;;18.49;100.00;97360.34;6176918;28;20615;-58
2023/07/16 03:53:13;;;;;;;7.20;6.50;;;;;;;18.48;100.00;97358.75;6178742;28;20627;-58
2023/07/16 03:56:16;;;;;;;8.53;6.97;;;;;;;18.46;100.00;97360.94;6189887;28;20315;-58
2023/07/16 03:59:18;;;;;;;7.63;6.60;;;;;;;18.45;100.00;97367.44;6185183;28;20229;-58
2023/07/16 04:02:20;;;;;;;8.60;6.80;;;;;;;18.44;100.00;97375.84;6178753;28;20228;-58
2023/07/16 04:05:23;;;;;;;7.10;6.40;;;;;;;18.41;100.00;97373.72;6197078;28;20238;-58
2023/07/16 04:08:25;;;;;;;7.70;6.90;;;;;;;18.44;100.00;97373.13;6177603;28;20695;-58
2023/07/16 04:11:27;;;;;;;8.97;7.30;;;;;;;18.43;100.00;97375.03;6194544;28;20233;-58
2023/07/16 04:14:29;;;;;;;7.60;6.77;;;;;;;18.39;100.00;97381.31;6197359;28;20232;-58
2023/07/16 04:17:32;;;;;;;9.00;7.33;;;;;;;18.39;100.00;97390.22;6192657;28;20366;-58
2023/07/16 04:20:34;;;;;;;7.77;6.97;;;;;;;18.37;100.00;97378.09;6190130;28;20229;-58
2023/07/16 04:23:36;;;;;;;8.03;6.27;;;;;;;18.44;100.00;97392.00;6194258;28;20236;-58
2023/07/16 04:26:38;;;;;;;8.07;6.13;;;;;;;18.47;100.00;97411.09;6178489;28;20233;-58
2023/07/16 04:29:40;;;;;;;7.30;6.60;;;;;;;18.52;100.00;97456.88;6189358;28;20248;-58
2023/07/16 04:32:42;;;;;;;6.83;6.13;;;;;;;18.55;100.00;97471.63;6188291;28;20221;-58
2023/07/16 04:35:44;;;;;;;8.57;6.90;;;;;;;18.50;100.00;97439.38;6196052;28;20216;-58
2023/07/16 04:38:47;;;;;;;8.27;7.47;;;;;;;18.68;100.00;97459.28;6175916;28;20232;-57
2023/07/16 04:41:49;;;;;;;7.80;7.03;;;;;;;18.72;100.00;97471.91;6191983;28;20229;-58
2023/07/16 04:44:51;;;;;;;9.90;6.83;;;;;;;18.77;100.00;97482.59;6197140;28;20739;-58
2023/07/16 04:47:54;;;;;;;7.87;7.07;;;;;;;18.82;100.00;97530.28;6187116;28;20600;-58
2023/07/16 04:50:56;;;;;;;8.37;7.00;;;;;;;18.86;100.00;97543.94;6192509;28;20289;-58
2023/07/16 04:53:58;;;;;;;8.67;7.77;;;;;;;18.97;100.00;97546.19;6195103;28;20232;-58
2023/07/16 04:57:00;;;;;;;10.33;7.63;;;;;;;19.17;100.00;97555.78;6198755;28;20999;-57
2023/07/16 05:00:05;;;;;;;8.27;6.57;;;;;;;19.37;100.00;97559.97;6198092;28;20236;-57
2023/07/16 05:03:08;;;;;;;7.73;6.23;;;;;;;19.70;98.28;97560.63;6192108;28;20224;-59
2023/07/16 05:06:10;;;;;;;8.57;6.30;;;;;;;20.09;94.70;97573.53;6196514;28;20294;-55
2023/07/16 05:09:13;;;;;;;7.37;6.63;;;;;;;21.22;84.53;97576.94;6193363;28;20264;-58
2023/07/16 05:12:15;;;;;;;7.80;6.37;;;;;;;21.85;80.97;97574.88;6193508;28;20687;-60
2023/07/16 05:15:18;;;;;;;6.57;5.37;;;;;;;21.96;80.03;97581.59;6192397;28;20221;-58
2023/07/16 05:18:21;;;;;;;6.10;5.50;;;;;;;21.90;80.63;97589.09;6192879;28;20241;-58
2023/07/16 05:21:24;;;;;;;6.13;5.20;;;;;;;21.87;79.18;97581.59;6194290;28;20302;-59
2023/07/16 05:24:26;;;;;;;6.37;4.47;;;;;;;21.80;78.03;97581.25;6192182;28;20689;-59
2023/07/16 05:27:29;;;;;;;6.00;5.00;;;;;;;21.63;79.06;97573.91;6191779;28;20225;-59
2023/07/16 05:30:31;;;;;;;6.37;4.70;;;;;;;21.72;76.12;97595.59;6192373;28;20727;-59
2023/07/16 05:33:33;;;;;;;7.03;4.17;;;;;;;21.79;76.30;97611.41;6175474;28;20232;-58
2023/07/16 05:36:35;;;;;;;6.37;3.83;;;;;;;22.05;71.81;97603.31;6195379;28;20319;-58
2023/07/16 05:39:38;;;;;;;5.87;3.93;;;;;;;21.98;73.72;97597.56;6196560;28;20315;-59
2023/07/16 05:42:40;;;;;;;4.30;3.73;;;;;;;22.46;69.47;97602.06;6169944;28;20229;-59
2023/07/16 05:45:42;;;;;;;5.57;3.60;;;;;;;22.45;69.49;97605.88;6191493;28;20720;-59
2023/07/16 05:48:45;;;;;;;7.63;3.50;;;;;;;22.43;70.05;97619.78;6192511;28;20229;-59
2023/07/16 05:51:48;;;;;;;5.43;3.50;;;;;;;22.38;70.59;97625.38;6193665;28;20224;-59
2023/07/16 05:54:50;;;;;;;6.20;3.50;;;;;;;22.78;66.28;97617.81;6195139;28;20334;-59
2023/07/16 05:57:53;;;;;;;5.93;3.50;;;;;;;23.27;63.21;97631.94;6196023;28;20335;-59
2023/07/16 06:00:55;;;;;;;4.17;3.60;;;;;;;23.56;61.87;97635.81;6179668;28;20233;-59
2023/07/16 06:03:57;;;;;;;5.20;3.07;;;;;;;23.58;61.84;97647.16;6193632;28;20224;-59
2023/07/16 06:07:00;;;;;;;3.93;3.60;;;;;;;23.80;60.43;97635.25;6194512;28;20241;-59
2023/07/16 06:10:02;;;;;;;4.53;3.70;;;;;;;23.65;61.23;97642.84;6195817;28;20232;-59
2023/07/16 06:13:05;;;;;;;7.28;4.35;;;;;;;23.94;59.76;97641.25;6189827;28;20815;-59
2023/07/16 06:16:07;;;;;;;6.57;3.83;;;;;;;24.03;60.82;97655.56;6192147;28;20611;-59
2023/07/16 06:19:09;;;;;;;5.55;4.15;;;;;;;23.94;61.28;97669.25;6195257;28;20223;-59
2023/07/16 06:22:12;;;;;;;5.82;3.80;;;;;;;24.01;60.37;97668.72;6192063;28;20236;-60
2023/07/16 06:25:15;;;;;;;4.65;4.10;;;;;;;23.97;60.38;97669.72;6193300;28;20312;-59
2023/07/16 06:28:17;;;;;;;5.53;4.28;;;;;;;24.20;59.79;97688.13;6191516;28;20546;-59
2023/07/16 06:31:21;;;;;;;7.30;4.10;;;;;;;24.32;59.98;97676.50;6192167;28;20316;-60
2023/07/16 06:34:29;;;;;;;4.32;3.92;;;;;;;24.52;59.13;97687.78;6197147;28;20233;-59
2023/07/16 06:37:32;;;;;;;4.78;3.95;;;;;;;24.50;60.01;97706.38;6193254;28;20315;-60
2023/07/16 06:40:34;;;;;;;6.70;4.45;;;;;;;24.61;59.07;97704.84;6182533;28;20240;-60
2023/07/16 06:43:37;;;;;;;5.40;4.00;;;;;;;24.80;58.36;97690.75;6199711;28;20251;-61
2023/07/16 06:46:40;;;;;;;6.18;3.55;;;;;;;24.68;57.65;97675.16;6195357;28;20709;-60
2023/07/16 06:49:43;;;;;;;5.45;3.63;;;;;;;24.79;57.66;97703.56;6196386;28;20224;-60
2023/07/16 06:52:45;;;;;;;6.53;3.30;;;;;;;24.92;57.08;97699.75;6193623;28;20224;-60
2023/07/16 06:55:51;;;;;;;3.85;3.00;;;;;;;24.97;56.71;97715.09;6198089;28;20236;-60
2023/07/16 06:58:53;;;;;;;5.65;3.50;;;;;;;25.07;55.55;97706.53;6185970;28;20239;-60
2023/07/16 07:01:55;;;;;;;5.65;3.22;;;;;;;25.28;54.87;97716.63;6200695;28;20362;-59
2023/07/16 07:04:59;;;;;;;3.78;2.95;;;;;;;25.26;54.72;97714.19;6197759;28;20244;-60
2023/07/16 07:08:01;;;;;;;5.20;2.90;;;;;;;25.29;55.00;97718.19;6184364;28;20248;-60
2023/07/16 07:11:04;;;;;;;3.17;2.88;;;;;;;25.42;53.59;97704.25;6195463;28;20236;-60
2023/07/16 07:14:07;;;;;;;5.30;3.20;;;;;;;25.43;54.86;97703.13;6182433;28;20252;-60
2023/07/16 07:17:12;;;;;;;4.20;3.05;;;;;;;25.29;55.65;97701.84;6185739;28;20234;-60
2023/07/16 07:20:15;;;;;;;4.30;2.95;;;;;;;25.50;55.20;97699.03;6185122;28;20327;-60
2023/07/16 07:23:17;;;;;;;3.58;2.58;;;;;;;25.59;54.44;97713.38;6193865;28;20224;-60
2023/07/16 07:26:20;;;;;;;3.20;2.90;;;;;;;25.62;54.04;97701.78;6187357;28;20244;-60
2023/07/16 07:29:23;;;;;;;6.53;2.75;;;;;;;25.69;53.22;97721.91;6192541;28;20271;-61
2023/07/16 07:32:27;;;;;;;6.35;3.55;;;;;;;25.74;52.60;97727.13;6199732;28;20339;-60
2023/07/16 07:35:30;;;;;;;3.15;2.88;;;;;;;25.70;52.27;97723.50;6196051;28;20236;-60
2023/07/16 07:38:32;;;;;;;3.88;3.00;;;;;;;25.86;51.62;97726.41;6192227;28;20295;-60
2023/07/16 07:41:35;;;;;;;3.25;2.95;;;;;;;25.88;52.15;97726.84;6194935;28;20242;-60
2023/07/16 07:44:37;;;;;;;3.30;2.85;;;;;;;26.07;51.45;97728.22;6195039;28;20240;-61
2023/07/16 07:47:41;;;;;;;3.22;2.90;;;;;;;25.93;52.39;97743.00;6194814;28;20239;-60
2023/07/16 07:50:43;;;;;;;2.85;2.45;;;;;;;25.75;54.21;97722.50;6185075;28;20237;-60
2023/07/16 07:53:46;;;;;;;4.53;2.60;;;;;;;26.01;52.45;97744.03;6187499;28;20933;-59
2023/07/16 07:56:48;;;;;;;4.45;2.70;;;;;;;26.15;52.07;97743.66;6181715;28;20233;-60
2023/07/16 07:59:57;;;;;;;4.13;2.75;;;;;;;26.12;51.66;97730.72;6190409;28;20706;-59
2023/07/16 08:02:59;;;;;;;5.32;2.60;;;;;;;26.33;51.26;97744.22;6197119;28;20367;-59
2023/07/16 08:06:03;;;;;;;7.53;2.72;;;;;;;26.29;50.75;97760.50;6155145;28;20629;-59
2023/07/16 08:09:05;;;;;;;5.55;3.03;;;;;;;26.27;51.40;97748.34;6172140;28;20291;-60
2023/07/16 08:12:08;;;;;;;4.88;3.03;;;;;;;26.43;50.20;97769.16;6168184;28;20225;-59
2023/07/16 08:15:14;;;;;;;3.00;2.45;;;;;;;26.21;52.02;97759.50;6176115;28;20224;-59
2023/07/16 08:18:17;;;;;;;4.35;2.67;;;;;;;26.32;51.52;97762.56;6168204;28;20328;-59
2023/07/16 08:21:21;;;;;;;3.63;2.60;;;;;;;26.45;51.54;97755.16;6173675;28;20218;-59
2023/07/16 08:24:27;;;;;;;5.03;3.10;;;;;;;26.40;53.12;97753.44;6168712;28;20229;-59
2023/07/16 08:27:30;;;;;;;4.38;2.70;;;;;;;26.51;51.96;97772.13;6166139;28;20241;-60
2023/07/16 08:30:33;;;;;;;3.83;2.95;;;;;;;26.57;52.22;97784.41;6172421;28;20237;-59
2023/07/16 08:33:35;;;;;;;5.22;2.83;;;;;;;26.38;50.89;97769.38;6172377;28;20659;-60
2023/07/16 08:36:38;;;;;;;3.47;2.80;;;;;;;26.49;53.49;97792.38;6170064;28;20715;-60
2023/07/16 08:39:40;;;;;;;5.07;2.95;;;;;;;26.63;50.33;97781.09;6168674;28;20240;-60
2023/07/16 08:42:46;;;;;;;3.90;2.83;;;;;;;26.67;50.63;97794.88;6165541;28;20237;-60
2023/07/16 08:45:49;;;;;;;3.63;2.85;;;;;;;26.49;51.16;97791.59;6168163;28;20233;-60
2023/07/16 08:48:53;;;;;;;3.17;2.88;;;;;;;26.55;51.13;97783.94;6161701;28;20245;-60
2023/07/16 08:51:56;;;;;;;6.05;3.35;;;;;;;26.76;50.38;97795.53;6169212;28;20324;-60
2023/07/16 08:54:59;;;;;;;2.90;2.60;;;;;;;26.63;51.22;97792.03;6170005;28;20604;-62
2023/07/16 08:58:01;;;;;;;5.03;3.20;;;;;;;26.59;51.36;97790.31;6171567;28;20667;-60
2023/07/16 09:01:05;;;;;;;6.95;3.25;;;;;;;26.70;50.78;97786.78;6171939;28;20235;-60
2023/07/16 09:04:08;;;;;;;6.43;2.88;;;;;;;26.81;52.38;97808.16;6168118;28;20233;-60
2023/07/16 09:07:10;;;;;;;3.10;2.80;;;;;;;26.78;51.75;97795.97;6190103;28;20239;-61
2023/07/16 09:10:12;;;;;;;5.05;3.08;;;;;;;26.82;51.45;97809.75;6190965;28;20240;-60
2023/07/16 09:13:18;;;;;;;5.25;3.05;;;;;;;27.06;50.17;97803.44;6193146;28;20285;-59
2023/07/16 09:16:21;;;;;;;5.30;2.80;;;;;;;26.88;51.63;97797.44;6198173;28;20265;-59
2023/07/16 09:19:25;;;;;;;4.13;3.10;;;;;;;26.97;50.89;97809.03;6191608;28;20578;-59
2023/07/16 09:22:27;;;;;;;3.08;2.78;;;;;;;26.92;51.01;97812.00;6193021;28;20236;-59
2023/07/16 09:25:31;;;;;;;4.90;2.97;;;;;;;27.00;50.84;97811.09;6192395;28;20271;-59
2023/07/16 09:28:33;;;;;;;4.55;2.60;;;;;;;26.95;51.09;97787.50;6191394;28;20232;-59
2023/07/16 09:31:35;;;;;;;2.75;2.55;;;;;;;27.02;50.41;97800.59;6173030;28;20240;-59
2023/07/16 09:34:38;;;;;;;3.05;2.85;;;;;;;27.12;51.40;97807.53;6192757;28;20247;-59
2023/07/16 09:37:40;;;;;;;5.38;2.65;;;;;;;27.12;51.89;97804.81;6193222;28;20614;-58
2023/07/16 09:40:42;;;;;;;3.03;2.42;;;;;;;27.22;52.46;97801.56;6195440;28;20228;-59
2023/07/16 09:43:45;;;;;;;3.90;2.80;;;;;;;27.33;52.25;97799.91;6191628;28;20244;-59
2023/07/16 09:46:48;;;;;;;4.53;2.63;;;;;;;27.49;50.42;97817.19;6191268;28;20609;-59
2023/07/16 09:49:51;;;;;;;2.83;2.63;;;;;;;27.34;51.35;97814.38;6193700;28;20698;-58
2023/07/16 09:52:55;;;;;;;2.88;2.50;;;;;;;27.21;53.26;97808.97;6191056;28;20332;-57
2023/07/16 09:55:59;;;;;;;4.90;2.63;;;;;;;27.24;52.62;97800.09;6189653;28;20593;-58
2023/07/16 09:59:05;;;;;;;4.05;2.80;;;;;;;27.30;53.47;97797.91;6195481;28;20245;-58
2023/07/16 10:02:07;;;;;;;3.20;2.50;;;;;;;27.53;51.74;97803.59;6193885;28;20291;-58
2023/07/16 10:05:17;;;;;;;2.75;2.40;;;;;;;27.73;48.41;97804.53;6188945;28;20244;-58
2023/07/16 10:08:20;;;;;;;3.33;2.70;;;;;;;27.83;48.72;97812.22;6191242;28;20287;-59
2023/07/16 10:11:23;;;;;;;2.88;2.50;;;;;;;27.76;48.06;97807.38;6196502;28;20236;-58
2023/07/16 10:14:25;;;;;;;2.63;2.42;;;;;;;27.47;48.87;97759.25;6193429;28;20322;-59
2023/07/16 10:17:32;;;;;;;3.35;2.85;;;;;;;27.88;48.20;97803.78;6194584;28;20232;-59
2023/07/16 10:20:42;;;;;;;3.28;2.67;;;;;;;27.90;49.33;97815.16;6186319;28;20233;-58
2023/07/16 10:23:45;;;;;;;2.90;2.53;;;;;;;28.01;46.05;97799.78;6193090;28;20221;-58
2023/07/16 10:26:48;;;;;;;2.70;2.40;;;;;;;27.94;47.98;97804.31;6193462;28;20282;-58
2023/07/16 10:29:51;;;;;;;2.58;2.38;;;;;;;27.74;48.08;97787.78;6153284;28;20585;-58
2023/07/16 10:32:53;;;;;;;2.42;2.22;;;;;;;27.81;50.54;97792.63;6191299;28;20282;-58
2023/07/16 10:36:00;;;;;;;2.85;2.63;;;;;;;27.85;47.05;97788.03;6195528;28;20223;-58
2023/07/16 10:39:04;;;;;;;6.38;3.00;;;;;;;27.86;48.79;97792.38;6175898;28;20243;-58
2023/07/16 10:42:06;;;;;;;3.00;2.70;;;;;;;28.03;47.74;97792.03;6192054;28;20213;-58
2023/07/16 10:45:09;;;;;;;3.55;2.88;;;;;;;28.15;48.10;97782.13;6188933;28;20216;-58
2023/07/16 10:48:12;;;;;;;3.75;2.65;;;;;;;28.32;45.86;97784.47;6175206;28;20213;-58
2023/07/16 10:51:18;;;;;;;5.93;2.70;;;;;;;28.57;44.96;97798.78;6193655;28;20231;-59
2023/07/16 10:54:21;;;;;;;3.42;2.60;;;;;;;28.27;46.71;97779.25;6189973;28;20239;-58
2023/07/16 10:57:25;;;;;;;4.22;2.60;;;;;;;28.37;46.44;97783.44;6194594;28;20238;-58
2023/07/16 11:00:27;;;;;;;3.35;2.47;;;;;;;28.26;48.35;97777.69;6192207;28;20225;-57
2023/07/16 11:03:30;;;;;;;3.85;2.70;;;;;;;28.53;45.79;97798.72;6193240;28;20266;-58
2023/07/16 11:06:33;;;;;;;4.07;2.92;;;;;;;28.39;46.13;97775.66;6187975;28;20228;-58
2023/07/16 11:09:43;;;;;;;2.47;2.28;;;;;;;28.56;45.09;97788.19;6188774;28;20225;-58
2023/07/16 11:12:52;;;;;;;2.42;2.17;;;;;;;28.35;46.95;97774.78;6193443;28;20738;-58
2023/07/16 11:15:54;;;;;;;2.28;2.17;;;;;;;28.35;47.56;97792.03;6196737;28;20245;-58
2023/07/16 11:18:57;;;;;;;2.55;2.22;;;;;;;28.37;48.24;97783.44;6190816;28;20237;-59
2023/07/16 11:22:01;;;;;;;4.03;2.70;;;;;;;28.51;47.90;97794.72;6191525;28;20240;-58
2023/07/16 11:25:04;;;;;;;2.40;2.20;;;;;;;28.54;49.22;97792.06;6194404;28;21272;-58
2023/07/16 11:28:06;;;;;;;3.15;2.40;;;;;;;28.62;48.38;97797.69;6195577;28;20236;-58
2023/07/16 11:31:15;;;;;;;3.17;2.22;;;;;;;28.61;48.38;97791.44;6196337;28;20606;-59
2023/07/16 11:34:21;;;;;;;3.03;2.67;;;;;;;28.53;45.64;97790.50;6197787;28;20323;-58
2023/07/16 11:37:28;;;;;;;3.22;2.22;;;;;;;28.57;47.10;97784.28;6196618;28;20615;-58
2023/07/16 11:40:30;;;;;;;2.40;2.20;;;;;;;28.63;47.09;97786.41;6192805;28;20244;-58
2023/07/16 11:43:36;;;;;;;2.63;2.20;;;;;;;28.71;45.69;97795.56;6192133;28;20232;-59
2023/07/16 11:46:38;;;;;;;2.47;2.28;;;;;;;28.82;45.65;97784.81;6189770;28;20243;-59
2023/07/16 11:49:40;;;;;;;4.15;2.50;;;;;;;28.78;46.40;97779.28;6194886;28;20382;-59
2023/07/16 11:52:42;;;;;;;2.47;2.28;;;;;;;28.85;46.85;97781.38;6196040;28;20299;-59
2023/07/16 11:55:45;;;;;;;3.33;2.38;;;;;;;28.56;45.42;97722.38;6193464;28;20237;-59
2023/07/16 11:58:47;;;;;;;2.40;2.20;;;;;;;29.05;44.73;97780.25;6196236;28;20216;-59
2023/07/16 12:01:49;;;;;;;2.28;2.17;;;;;;;29.09;43.45;97770.16;6198051;28;20228;-59
2023/07/16 12:04:51;;;;;;;3.55;2.38;;;;;;;29.01;45.46;97761.00;6192037;28;20648;-58
2023/07/16 12:07:56;;;;;;;5.40;2.58;;;;;;;29.21;44.05;97770.00;6198239;28;20611;-59
2023/07/16 12:10:59;;;;;;;2.40;2.20;;;;;;;29.19;42.91;97763.28;6190995;28;20235;-58
2023/07/16 12:14:05;;;;;;;4.22;2.53;;;;;;;29.37;43.38;97780.09;6196770;28;20220;-58
2023/07/16 12:17:07;;;;;;;2.53;2.33;;;;;;;29.12;44.23;97749.44;6199194;28;20812;-59
2023/07/16 12:20:10;;;;;;;2.58;2.38;;;;;;;29.23;43.47;97766.91;6198377;28;20240;-59
2023/07/16 12:23:12;;;;;;;2.90;2.47;;;;;;;29.33;44.12;97762.78;6198843;28;20301;-57
2023/07/16 12:26:15;;;;;;;2.67;2.25;;;;;;;29.44;43.87;97767.28;6193489;28;20243;-58
2023/07/16 12:29:17;;;;;;;2.45;2.25;;;;;;;29.47;42.26;97765.78;6192802;28;20224;-58
2023/07/16 12:32:20;;;;;;;2.45;2.25;;;;;;;29.47;42.71;97774.03;6193239;28;20228;-58
2023/07/16 12:35:22;;;;;;;3.67;2.33;;;;;;;29.47;43.15;97763.03;6191715;28;20315;-58
2023/07/16 12:38:24;;;;;;;2.30;2.13;;;;;;;29.61;43.29;97770.78;6198090;28;20275;-56
2023/07/16 12:41:26;;;;;;;3.03;2.08;;;;;;;29.76;41.82;97775.38;6194067;28;20232;-57
2023/07/16 12:44:29;;;;;;;2.70;2.50;;;;;;;29.67;43.22;97772.06;6194746;28;20596;-58
2023/07/16 12:47:32;;;;;;;2.30;2.10;;;;;;;29.50;46.21;97760.34;6194761;28;20771;-58
2023/07/16 12:50:34;;;;;;;2.55;1.85;;;;;;;29.69;42.46;97767.78;6191709;28;20228;-58
2023/07/16 12:53:37;;;;;;;2.15;2.05;;;;;;;29.59;42.11;97773.88;6195033;28;20248;-58
2023/07/16 12:56:40;;;;;;;2.50;2.28;;;;;;;29.51;43.22;97774.88;6187185;28;20819;-58
2023/07/16 12:59:42;;;;;;;3.67;2.47;;;;;;;29.48;46.45;97775.59;6196212;28;20225;-58
2023/07/16 13:02:45;;;;;;;2.45;2.25;;;;;;;29.54;43.70;97769.47;6194168;28;20240;-59
2023/07/16 13:05:47;;;;;;;2.95;2.13;;;;;;;29.47;42.16;97750.09;6190580;28;20298;-58
2023/07/16 13:08:52;;;;;;;4.72;2.20;;;;;;;29.59;41.86;97771.13;6191768;28;20237;-59
2023/07/16 13:11:55;;;;;;;1.80;1.70;;;;;;;29.63;41.91;97765.72;6190835;28;20650;-59
2023/07/16 13:14:57;;;;;;;2.58;2.00;;;;;;;29.57;43.14;97769.91;6195262;28;20238;-59
2023/07/16 13:18:00;;;;;;;3.60;2.17;;;;;;;29.74;41.91;97766.69;6196540;28;20239;-59
2023/07/16 13:21:04;;;;;;;2.35;1.90;;;;;;;29.84;40.87;97757.81;6194112;28;20231;-58
2023/07/16 13:24:07;;;;;;;2.60;2.20;;;;;;;30.00;40.25;97763.19;6192113;28;20212;-58
2023/07/16 13:27:19;;;;;;;2.22;2.05;;;;;;;29.89;42.08;97768.50;6177384;28;20307;-59
2023/07/16 13:30:22;;;;;;;2.85;1.98;;;;;;;29.68;43.53;97765.41;6194526;28;20631;-59
2023/07/16 13:33:25;;;;;;;2.20;1.90;;;;;;;29.65;42.38;97769.66;6191802;28;20243;-59
2023/07/16 13:36:27;;;;;;;3.25;2.08;;;;;;;29.54;41.88;97765.94;6189981;28;20232;-59
2023/07/16 13:39:30;;;;;;;2.10;1.85;;;;;;;29.73;42.46;97776.09;6193291;28;20232;-59
2023/07/16 13:42:32;;;;;;;2.20;2.00;;;;;;;29.92;40.90;97772.50;6193830;28;20235;-59
2023/07/16 13:45:35;;;;;;;3.35;1.80;;;;;;;30.06;39.76;97759.00;6185245;28;20249;-59
2023/07/16 13:48:39;;;;;;;2.22;2.10;;;;;;;29.86;41.20;97752.78;6192319;28;20227;-59
2023/07/16 13:52:00;;;;;;;2.47;2.20;;;;;;;30.01;43.14;97760.09;6183635;28;20289;-58
2023/07/16 13:55:04;;;;;;;2.63;2.13;;;;;;;30.23;40.04;97763.97;6191617;28;20279;-58
2023/07/16 13:58:07;;;;;;;2.00;1.90;;;;;;;30.25;38.94;97758.13;6193858;28;20366;-58
2023/07/16 14:01:10;;;;;;;1.80;1.70;;;;;;;30.13;39.62;97741.84;6192425;28;20233;-58
2023/07/16 14:04:13;;;;;;;4.95;2.35;;;;;;;30.13;40.53;97747.34;6195744;28;20316;-58
2023/07/16 14:07:16;;;;;;;2.30;1.90;;;;;;;29.97;41.74;97737.25;6180285;28;20244;-58
2023/07/16 14:10:19;;;;;;;2.35;1.83;;;;;;;30.08;42.77;97749.19;6191154;28;20237;-58
2023/07/16 14:13:22;;;;;;;4.47;1.65;;;;;;;29.86;45.26;97741.78;6191081;28;20383;-58
2023/07/16 14:16:26;;;;;;;1.90;1.80;;;;;;;29.69;44.67;97736.78;6191114;28;20236;-58
2023/07/16 14:19:30;;;;;;;3.25;2.05;;;;;;;29.59;46.82;97737.38;6189494;28;20647;-58
2023/07/16 14:22:33;;;;;;;2.20;2.00;;;;;;;29.35;47.67;97722.03;6183989;28;20237;-58